createdAt,value
2018-09-30T00:00:29.859Z,19.5
2018-09-30T00:01:20.567Z,19.6
2018-09-30T00:02:10.865Z,19.5
2018-09-30T00:02:59.767Z,19.5
2018-09-30T00:03:50.429Z,19.5
2018-09-30T00:04:40.745Z,19.5
2018-09-30T00:05:30.756Z,19.5
2018-09-30T00:06:20.327Z,19.5
2018-09-30T00:07:10.764Z,19.5
2018-09-30T00:08:00.973Z,19.6
2018-09-30T00:08:50.749Z,19.5
2018-09-30T00:09:41.072Z,19.5
2018-09-30T00:10:31.234Z,19.5
2018-09-30T00:11:21.719Z,19.5
2018-09-30T00:12:09.926Z,19.6
2018-09-30T00:13:01.319Z,19.5
2018-09-30T00:13:51.361Z,19.5
2018-09-30T00:14:40.903Z,19.5
2018-09-30T00:15:31.801Z,19.5
2018-09-30T00:16:21.006Z,19.5
2018-09-30T00:17:11.424Z,19.5
2018-09-30T00:18:01.415Z,19.5
2018-09-30T00:18:51.786Z,19.5
2018-09-30T00:19:41.936Z,19.6
2018-09-30T00:20:31.086Z,19.5
2018-09-30T00:21:21.418Z,19.5
2018-09-30T00:22:11.996Z,19.6
2018-09-30T00:23:02.340Z,19.5
2018-09-30T00:23:52.165Z,19.5
2018-09-30T00:24:41.943Z,19.5
2018-09-30T00:25:31.991Z,19.6
2018-09-30T00:26:22.905Z,19.6
2018-09-30T00:27:12.442Z,19.6
2018-09-30T00:28:03.065Z,19.5
2018-09-30T00:28:51.363Z,19.5
2018-09-30T00:29:41.748Z,19.5
2018-09-30T00:30:32.432Z,19.5
2018-09-30T00:31:22.123Z,19.5
2018-09-30T00:32:12.494Z,19.5
2018-09-30T00:33:02.797Z,19.6
2018-09-30T00:33:52.870Z,19.6
2018-09-30T00:34:42.700Z,19.5
2018-09-30T00:35:32.994Z,19.5
2018-09-30T00:36:24.589Z,19.6
2018-09-30T00:37:11.965Z,19.6
2018-09-30T00:55:54.157Z,19.6
2018-09-30T00:56:43.638Z,19.6
2018-09-30T00:57:33.979Z,19.5
2018-09-30T00:58:24.058Z,19.6
2018-09-30T00:59:13.536Z,19.6
2018-09-30T01:00:04.450Z,19.5
2018-09-30T01:00:53.880Z,19.6
2018-09-30T01:01:44.295Z,19.5
2018-09-30T01:02:33.763Z,19.5
2018-09-30T01:03:23.973Z,19.5
2018-09-30T01:04:14.727Z,19.6
2018-09-30T01:05:04.868Z,19.6
2018-09-30T01:05:54.880Z,19.5
2018-09-30T01:06:44.922Z,19.5
2018-09-30T01:07:35.033Z,19.5
2018-09-30T01:08:24.782Z,19.6
2018-09-30T01:09:14.533Z,19.5
2018-09-30T01:10:04.864Z,19.5
2018-09-30T01:10:54.647Z,19.5
2018-09-30T01:11:45.312Z,19.5
2018-09-30T01:12:34.575Z,19.5
2018-09-30T01:13:24.832Z,19.5
2018-09-30T01:14:15.479Z,19.5
2018-09-30T01:15:05.249Z,19.5
2018-09-30T01:15:55.294Z,19.5
2018-09-30T01:16:45.054Z,19.5
2018-09-30T01:17:34.696Z,19.5
2018-09-30T01:18:25.796Z,19.5
2018-09-30T01:19:14.964Z,19.5
2018-09-30T01:20:05.896Z,19.5
2018-09-30T01:20:54.722Z,19.5
2018-09-30T01:21:45.999Z,19.5
2018-09-30T01:22:36.084Z,19.5
2018-09-30T01:23:26.165Z,19.5
2018-09-30T01:24:14.815Z,19.6
2018-09-30T01:25:05.706Z,19.6
2018-09-30T01:25:56.279Z,19.5
2018-09-30T01:26:46.404Z,19.5
2018-09-30T01:27:35.569Z,19.5
2018-09-30T01:28:26.283Z,19.5
2018-09-30T01:29:16.006Z,19.5
2018-09-30T01:30:05.816Z,19.5
2018-09-30T01:30:56.709Z,19.5
2018-09-30T01:31:46.551Z,19.6
2018-09-30T01:32:36.523Z,19.5
2018-09-30T01:33:26.654Z,19.6
2018-09-30T01:34:16.994Z,19.5
2018-09-30T01:35:06.721Z,19.6
2018-09-30T01:35:56.178Z,19.5
2018-09-30T01:36:46.818Z,19.5
2018-09-30T01:37:37.171Z,19.6
2018-09-30T01:38:26.693Z,19.5
2018-09-30T01:39:16.558Z,19.5
2018-09-30T01:40:07.389Z,19.5
2018-09-30T01:40:57.955Z,19.6
2018-09-30T01:41:46.400Z,19.6
2018-09-30T01:42:37.555Z,19.5
2018-09-30T01:43:27.591Z,19.6
2018-09-30T01:44:17.113Z,19.5
2018-09-30T01:45:06.900Z,19.5
2018-09-30T01:45:57.278Z,19.5
2018-09-30T01:46:48.626Z,19.5
2018-09-30T01:47:37.653Z,19.5
2018-09-30T01:48:27.423Z,19.5
2018-09-30T01:49:17.748Z,19.5
2018-09-30T01:50:07.567Z,19.6
2018-09-30T01:50:58.420Z,19.5
2018-09-30T01:51:47.976Z,19.5
2018-09-30T01:52:37.991Z,19.6
2018-09-30T01:53:28.400Z,19.6
2018-09-30T01:54:17.847Z,19.5
2018-09-30T01:55:07.424Z,19.5
2018-09-30T01:55:57.928Z,19.5
2018-09-30T01:56:47.969Z,19.5
2018-09-30T01:57:37.785Z,19.5
2018-09-30T01:58:28.698Z,19.5
2018-09-30T01:59:18.235Z,19.5
2018-09-30T02:00:08.247Z,19.6
2018-09-30T02:00:58.262Z,19.5
2018-09-30T02:01:48.444Z,19.5
2018-09-30T02:02:38.701Z,19.5
2018-09-30T02:03:28.500Z,19.5
2018-09-30T02:04:18.848Z,19.6
2018-09-30T02:05:08.617Z,19.5
2018-09-30T02:05:58.690Z,19.5
2018-09-30T02:06:49.243Z,19.5
2018-09-30T02:07:39.409Z,19.5
2018-09-30T02:08:28.874Z,19.5
2018-09-30T02:09:18.639Z,19.5
2018-09-30T02:10:09.257Z,19.5
2018-09-30T02:10:58.757Z,19.5
2018-09-30T02:11:50.004Z,19.5
2018-09-30T02:12:38.684Z,19.5
2018-09-30T02:13:29.249Z,19.5
2018-09-30T02:14:19.591Z,19.5
2018-09-30T02:15:09.923Z,19.5
2018-09-30T02:15:59.411Z,19.5
2018-09-30T02:16:49.464Z,19.5
2018-09-30T02:17:39.161Z,19.5
2018-09-30T02:18:30.226Z,19.5
2018-09-30T02:19:19.711Z,19.5
2018-09-30T02:20:09.981Z,19.6
2018-09-30T02:21:00.093Z,19.5
2018-09-30T02:21:49.876Z,19.5
2018-09-30T02:22:40.211Z,19.5
2018-09-30T02:23:30.220Z,19.5
2018-09-30T02:24:20.596Z,19.5
2018-09-30T02:25:10.091Z,19.5
2018-09-30T02:26:00.151Z,19.5
2018-09-30T02:26:49.060Z,19.5
2018-09-30T02:27:40.768Z,19.5
2018-09-30T02:28:30.045Z,19.5
2018-09-30T02:29:20.944Z,19.5
2018-09-30T02:30:11.091Z,19.6
2018-09-30T02:30:59.943Z,19.5
2018-09-30T02:31:50.595Z,19.5
2018-09-30T02:32:40.980Z,19.5
2018-09-30T02:33:30.675Z,19.5
2018-09-30T02:34:21.073Z,19.5
2018-09-30T02:35:10.832Z,19.5
2018-09-30T02:36:00.101Z,19.5
2018-09-30T02:36:51.302Z,19.5
2018-09-30T02:37:41.283Z,19.5
2018-09-30T02:38:31.027Z,19.5
2018-09-30T02:39:20.616Z,19.5
2018-09-30T02:40:11.487Z,19.5
2018-09-30T02:41:01.040Z,19.5
2018-09-30T02:41:51.877Z,19.5
2018-09-30T02:42:41.718Z,19.5
2018-09-30T02:43:32.017Z,19.5
2018-09-30T02:44:21.505Z,19.5
2018-09-30T02:45:11.600Z,19.5
2018-09-30T02:46:02.184Z,19.5
2018-09-30T02:46:52.322Z,19.5
2018-09-30T02:47:42.574Z,19.5
2018-09-30T02:48:32.397Z,19.5
2018-09-30T02:49:22.452Z,19.5
2018-09-30T02:50:12.249Z,19.5
2018-09-30T02:51:01.710Z,19.5
2018-09-30T02:51:52.129Z,19.5
2018-09-30T02:52:43.237Z,19.5
2018-09-30T02:53:31.989Z,19.5
2018-09-30T02:54:22.572Z,19.5
2018-09-30T02:55:11.989Z,19.5
2018-09-30T02:56:02.129Z,19.5
2018-09-30T02:56:51.847Z,19.5
2018-09-30T02:57:42.354Z,19.5
2018-09-30T02:58:32.044Z,19.5
2018-09-30T02:59:22.722Z,19.5
2018-09-30T03:00:12.444Z,19.5
2018-09-30T03:01:02.229Z,19.5
2018-09-30T03:01:51.477Z,19.5
2018-09-30T03:02:42.634Z,19.5
2018-09-30T03:03:33.006Z,19.5
2018-09-30T03:04:22.984Z,19.5
2018-09-30T03:05:13.263Z,19.5
2018-09-30T03:06:03.061Z,19.5
2018-09-30T03:06:53.694Z,19.5
2018-09-30T03:07:43.220Z,19.5
2018-09-30T03:08:33.849Z,19.5
2018-09-30T03:09:23.644Z,19.5
2018-09-30T03:10:14.441Z,19.5
2018-09-30T03:11:04.003Z,19.5
2018-09-30T03:11:53.826Z,19.5
2018-09-30T03:12:43.260Z,19.5
2018-09-30T03:13:33.925Z,19.5
2018-09-30T03:14:24.563Z,19.5
2018-09-30T03:15:14.320Z,19.5
2018-09-30T03:16:03.830Z,19.5
2018-09-30T03:16:54.120Z,19.5
2018-09-30T03:17:43.944Z,19.5
2018-09-30T03:18:34.517Z,19.5
2018-09-30T03:19:24.649Z,19.5
2018-09-30T03:20:14.367Z,19.5
2018-09-30T03:21:03.030Z,19.5
2018-09-30T03:21:54.527Z,19.5
2018-09-30T03:22:44.574Z,19.5
2018-09-30T03:23:34.927Z,19.5
2018-09-30T03:24:24.411Z,19.5
2018-09-30T03:25:30.698Z,19.5
2018-09-30T03:26:03.766Z,19.5
2018-09-30T03:26:54.654Z,19.5
2018-09-30T03:27:44.925Z,19.5
2018-09-30T03:28:35.020Z,19.5
2018-09-30T03:29:25.090Z,19.5
2018-09-30T03:30:15.203Z,19.5
2018-09-30T03:31:04.920Z,19.5
2018-09-30T03:31:55.622Z,19.5
2018-09-30T03:32:45.642Z,19.5
2018-09-30T03:33:35.460Z,19.5
2018-09-30T03:34:25.433Z,19.5
2018-09-30T03:35:15.535Z,19.5
2018-09-30T03:36:05.002Z,19.5
2018-09-30T03:36:55.361Z,19.5
2018-09-30T03:37:46.024Z,19.5
2018-09-30T03:38:35.973Z,19.4
2018-09-30T03:39:25.918Z,19.4
2018-09-30T03:40:15.344Z,19.4
2018-09-30T03:41:06.403Z,19.4
2018-09-30T03:41:55.700Z,19.5
2018-09-30T03:42:45.781Z,19.4
2018-09-30T03:43:35.273Z,19.4
2018-09-30T03:44:26.179Z,19.4
2018-09-30T03:45:15.934Z,19.4
2018-09-30T03:46:06.930Z,19.4
2018-09-30T03:46:56.318Z,19.5
2018-09-30T03:47:46.172Z,19.4
2018-09-30T03:48:35.856Z,19.5
2018-09-30T03:49:26.552Z,19.4
2018-09-30T03:50:16.545Z,19.5
2018-09-30T03:51:07.513Z,19.4
2018-09-30T03:51:56.728Z,19.4
2018-09-30T03:52:46.765Z,19.4
2018-09-30T03:53:36.543Z,19.4
2018-09-30T03:54:27.184Z,19.4
2018-09-30T03:55:16.695Z,19.4
2018-09-30T03:56:06.756Z,19.4
2018-09-30T03:56:57.633Z,19.5
2018-09-30T03:57:47.142Z,19.4
2018-09-30T03:58:37.187Z,19.4
2018-09-30T03:59:27.285Z,19.4
2018-09-30T04:00:17.389Z,19.4
2018-09-30T04:01:07.138Z,19.4
2018-09-30T04:01:57.467Z,19.4
2018-09-30T04:02:47.547Z,19.4
2018-09-30T04:03:37.521Z,19.4
2018-09-30T04:04:28.040Z,19.4
2018-09-30T04:05:17.204Z,19.4
2018-09-30T04:06:08.053Z,19.4
2018-09-30T04:06:58.099Z,19.4
2018-09-30T04:07:47.081Z,19.4
2018-09-30T04:08:37.934Z,19.4
2018-09-30T04:09:28.235Z,19.4
2018-09-30T04:10:19.562Z,19.4
2018-09-30T04:11:08.164Z,19.4
2018-09-30T04:11:57.933Z,19.4
2018-09-30T04:12:47.625Z,19.4
2018-09-30T04:13:38.272Z,19.4
2018-09-30T04:14:28.354Z,19.4
2018-09-30T04:15:17.573Z,19.4
2018-09-30T04:16:08.486Z,19.4
2018-09-30T04:16:59.730Z,19.4
2018-09-30T04:17:48.037Z,19.4
2018-09-30T04:18:38.347Z,19.4
2018-09-30T04:19:27.923Z,19.4
2018-09-30T04:20:18.234Z,19.4
2018-09-30T04:21:08.238Z,19.4
2018-09-30T04:21:58.356Z,19.4
2018-09-30T04:22:48.982Z,19.4
2018-09-30T04:23:39.044Z,19.4
2018-09-30T04:24:29.651Z,19.4
2018-09-30T04:25:19.128Z,19.4
2018-09-30T04:26:09.194Z,19.4
2018-09-30T04:26:59.493Z,19.4
2018-09-30T04:27:48.741Z,19.4
2018-09-30T04:28:39.671Z,19.4
2018-09-30T04:29:29.753Z,19.4
2018-09-30T04:30:18.945Z,19.4
2018-09-30T04:31:08.691Z,19.4
2018-09-30T04:32:00.157Z,19.4
2018-09-30T04:32:49.460Z,19.4
2018-09-30T04:33:39.472Z,19.4
2018-09-30T04:34:29.593Z,19.4
2018-09-30T04:35:19.318Z,19.4
2018-09-30T04:36:09.968Z,19.4
2018-09-30T04:37:00.275Z,19.4
2018-09-30T04:37:48.945Z,19.4
2018-09-30T04:38:39.655Z,19.4
2018-09-30T04:39:29.157Z,19.4
2018-09-30T04:40:19.788Z,19.4
2018-09-30T04:41:10.113Z,19.4
2018-09-30T04:41:59.882Z,19.4
2018-09-30T04:42:50.220Z,19.4
2018-09-30T04:43:40.807Z,19.4
2018-09-30T04:44:30.555Z,19.4
2018-09-30T04:45:20.560Z,19.4
2018-09-30T04:46:10.641Z,19.4
2018-09-30T04:47:01.238Z,19.4
2018-09-30T04:47:51.055Z,19.4
2018-09-30T04:48:40.829Z,19.4
2018-09-30T04:49:31.211Z,19.4
2018-09-30T04:50:20.439Z,19.4
2018-09-30T04:51:10.990Z,19.4
2018-09-30T05:24:58.590Z,19.3
2018-09-30T05:25:49.153Z,19.3
2018-09-30T05:26:37.638Z,19.3
2018-09-30T05:27:28.844Z,19.4
2018-09-30T05:28:17.753Z,19.3
2018-09-30T05:29:08.094Z,19.3
2018-09-30T05:29:59.478Z,19.3
2018-09-30T05:30:47.871Z,19.3
2018-09-30T05:31:39.641Z,19.3
2018-09-30T05:32:29.111Z,19.3
2018-09-30T05:33:18.881Z,19.4
2018-09-30T05:34:09.288Z,19.3
2018-09-30T05:34:59.502Z,19.3
2018-09-30T05:35:48.528Z,19.3
2018-09-30T05:36:39.146Z,19.3
2018-09-30T05:37:28.969Z,19.3
2018-09-30T05:38:19.502Z,19.3
2018-09-30T05:39:09.268Z,19.3
2018-09-30T05:40:00.648Z,19.3
2018-09-30T05:40:50.991Z,19.3
2018-09-30T05:41:40.053Z,19.3
2018-09-30T05:42:31.210Z,19.3
2018-09-30T05:43:19.907Z,19.3
2018-09-30T05:44:09.698Z,19.3
2018-09-30T05:45:00.058Z,19.3
2018-09-30T05:45:49.777Z,19.3
2018-09-30T05:46:40.745Z,19.3
2018-09-30T05:47:30.192Z,19.3
2018-09-30T05:48:19.977Z,19.3
2018-09-30T05:49:10.990Z,19.3
2018-09-30T05:50:00.168Z,19.3
2018-09-30T05:50:50.967Z,19.3
2018-09-30T05:51:40.204Z,19.3
2018-09-30T05:52:30.852Z,19.3
2018-09-30T05:53:20.048Z,19.3
2018-09-30T05:54:10.967Z,19.3
2018-09-30T05:55:01.017Z,19.3
2018-09-30T05:55:51.083Z,19.3
2018-09-30T05:56:40.562Z,19.3
2018-09-30T05:57:30.818Z,19.3
2018-09-30T05:58:21.275Z,19.3
2018-09-30T05:59:11.139Z,19.3
2018-09-30T06:00:00.849Z,19.3
2018-09-30T06:00:51.787Z,19.3
2018-09-30T06:01:40.672Z,19.4
2018-09-30T06:02:30.714Z,19.3
2018-09-30T06:03:20.216Z,19.3
2018-09-30T06:04:11.737Z,19.3
2018-09-30T06:05:01.172Z,19.3
2018-09-30T06:05:51.788Z,19.3
2018-09-30T06:06:41.711Z,19.3
2018-09-30T06:07:30.119Z,19.3
2018-09-30T06:08:20.479Z,19.3
2018-09-30T06:09:12.579Z,19.3
2018-09-30T06:10:01.687Z,19.3
2018-09-30T06:10:51.991Z,19.3
2018-09-30T06:11:40.912Z,19.3
2018-09-30T06:12:31.541Z,19.3
2018-09-30T06:13:22.386Z,19.3
2018-09-30T06:14:13.861Z,19.3
2018-09-30T06:15:02.101Z,19.3
2018-09-30T06:15:53.330Z,19.3
2018-09-30T06:16:42.697Z,19.3
2018-09-30T06:17:32.705Z,19.3
2018-09-30T06:18:22.733Z,19.4
2018-09-30T06:19:13.053Z,19.3
2018-09-30T06:20:02.870Z,19.4
2018-09-30T06:20:52.014Z,19.3
2018-09-30T06:21:42.498Z,19.3
2018-09-30T06:22:33.633Z,19.3
2018-09-30T06:23:22.263Z,19.3
2018-09-30T06:24:14.809Z,19.4
2018-09-30T06:25:01.788Z,19.3
2018-09-30T06:25:52.407Z,19.3
2018-09-30T06:26:43.683Z,19.3
2018-09-30T06:27:32.862Z,19.4
2018-09-30T06:28:22.391Z,19.4
2018-09-30T06:29:12.922Z,19.3
2018-09-30T06:30:03.560Z,19.3
2018-09-30T06:30:53.629Z,19.3
2018-09-30T06:31:45.433Z,19.3
2018-09-30T06:32:33.840Z,19.3
2018-09-30T06:33:24.447Z,19.4
2018-09-30T06:34:13.661Z,19.4
2018-09-30T06:35:03.667Z,19.3
2018-09-30T06:35:53.465Z,19.4
2018-09-30T06:36:43.822Z,19.3
2018-09-30T06:37:33.572Z,19.4
2018-09-30T06:38:23.148Z,19.3
2018-09-30T06:39:14.534Z,19.3
2018-09-30T06:40:03.747Z,19.3
2018-09-30T06:40:53.512Z,19.4
2018-09-30T06:41:44.563Z,19.4
2018-09-30T06:42:49.211Z,19.3
2018-09-30T06:43:24.850Z,19.3
2018-09-30T06:44:14.089Z,19.3
2018-09-30T06:45:05.152Z,19.4
2018-09-30T06:45:54.443Z,19.3
2018-09-30T06:46:43.671Z,19.4
2018-09-30T06:47:34.592Z,19.3
2018-09-30T06:48:24.401Z,19.3
2018-09-30T06:49:14.428Z,19.3
2018-09-30T06:50:03.907Z,19.3
2018-09-30T06:50:54.831Z,19.3
2018-09-30T06:51:45.701Z,19.3
2018-09-30T06:52:35.486Z,19.3
2018-09-30T06:53:24.763Z,19.3
2018-09-30T06:54:15.022Z,19.4
2018-09-30T06:55:04.063Z,19.4
2018-09-30T06:55:54.333Z,19.3
2018-09-30T06:56:45.515Z,19.3
2018-09-30T06:57:35.309Z,19.4
2018-09-30T06:58:25.364Z,19.3
2018-09-30T06:59:13.769Z,19.3
2018-09-30T07:00:04.668Z,19.4
2018-09-30T07:00:55.573Z,19.3
2018-09-30T07:01:46.140Z,19.3
2018-09-30T07:02:35.663Z,19.3
2018-09-30T07:03:25.780Z,19.3
2018-09-30T07:04:16.066Z,19.4
2018-09-30T07:05:06.996Z,19.3
2018-09-30T07:05:55.653Z,19.4
2018-09-30T07:06:45.193Z,19.3
2018-09-30T07:07:34.645Z,19.4
2018-09-30T07:08:26.170Z,19.4
2018-09-30T07:09:16.203Z,19.3
2018-09-30T07:10:06.622Z,19.3
2018-09-30T07:10:57.941Z,19.4
2018-09-30T07:11:46.642Z,19.4
2018-09-30T07:12:36.397Z,19.4
2018-09-30T07:13:26.223Z,19.3
2018-09-30T07:14:16.318Z,19.4
2018-09-30T07:15:06.346Z,19.4
2018-09-30T07:15:56.935Z,19.4
2018-09-30T07:16:47.690Z,19.4
2018-09-30T07:17:36.588Z,19.4
2018-09-30T07:18:26.377Z,19.4
2018-09-30T07:19:16.670Z,19.4
2018-09-30T07:20:07.271Z,19.4
2018-09-30T07:20:57.068Z,19.4
2018-09-30T07:21:46.242Z,19.4
2018-09-30T07:22:37.981Z,19.4
2018-09-30T07:23:27.019Z,19.4
2018-09-30T07:24:17.309Z,19.3
2018-09-30T07:25:07.132Z,19.4
2018-09-30T07:25:57.380Z,19.4
2018-09-30T07:26:47.704Z,19.4
2018-09-30T07:27:37.501Z,19.4
2018-09-30T07:28:26.738Z,19.4
2018-09-30T07:29:17.696Z,19.4
2018-09-30T07:30:07.788Z,19.4
2018-09-30T07:30:58.304Z,19.4
2018-09-30T07:31:47.296Z,19.4
2018-09-30T07:32:38.336Z,19.4
2018-09-30T07:33:27.801Z,19.4
2018-09-30T07:34:16.901Z,19.4
2018-09-30T07:35:08.144Z,19.4
2018-09-30T07:35:57.266Z,19.4
2018-09-30T07:36:47.349Z,19.4
2018-09-30T07:37:38.252Z,19.4
2018-09-30T07:38:27.754Z,19.4
2018-09-30T07:39:17.955Z,19.4
2018-09-30T07:40:08.704Z,19.4
2018-09-30T07:40:57.675Z,19.4
2018-09-30T07:41:48.248Z,19.4
2018-09-30T07:42:39.184Z,19.4
2018-09-30T07:43:28.936Z,19.4
2018-09-30T07:44:18.896Z,19.4
2018-09-30T07:45:09.356Z,19.4
2018-09-30T07:45:59.438Z,19.4
2018-09-30T07:46:50.666Z,19.4
2018-09-30T07:47:38.974Z,19.4
2018-09-30T07:48:28.845Z,19.4
2018-09-30T07:49:19.935Z,19.4
2018-09-30T07:50:09.421Z,19.4
2018-09-30T07:50:58.145Z,19.4
2018-09-30T07:51:48.988Z,19.4
2018-09-30T07:52:41.017Z,19.4
2018-09-30T07:53:29.101Z,19.4
2018-09-30T07:54:19.961Z,19.4
2018-09-30T07:55:09.551Z,19.4
2018-09-30T07:55:58.753Z,19.4
2018-09-30T07:56:49.938Z,19.3
2018-09-30T07:57:39.761Z,19.4
2018-09-30T07:58:30.068Z,19.4
2018-09-30T07:59:19.305Z,19.4
2018-09-30T08:00:10.000Z,19.4
2018-09-30T08:01:00.265Z,19.4
2018-09-30T08:01:49.171Z,19.4
2018-09-30T08:02:40.350Z,19.4
2018-09-30T08:03:30.160Z,19.4
2018-09-30T08:04:19.681Z,19.4
2018-09-30T08:05:09.705Z,19.4
2018-09-30T08:06:00.572Z,19.4
2018-09-30T08:06:49.570Z,19.4
2018-09-30T08:07:40.772Z,19.4
2018-09-30T08:08:31.323Z,19.4
2018-09-30T08:09:20.584Z,19.4
2018-09-30T08:10:10.345Z,19.4
2018-09-30T08:11:00.772Z,19.4
2018-09-30T08:11:50.444Z,19.4
2018-09-30T08:12:40.279Z,19.4
2018-09-30T08:13:31.202Z,19.4
2018-09-30T08:14:19.809Z,19.4
2018-09-30T08:15:11.304Z,19.4
2018-09-30T08:16:01.350Z,19.4
2018-09-30T08:16:51.487Z,19.4
2018-09-30T08:17:41.177Z,19.4
2018-09-30T08:18:31.821Z,19.4
2018-09-30T08:19:21.012Z,19.4
2018-09-30T08:20:11.312Z,19.4
2018-09-30T08:21:01.476Z,19.4
2018-09-30T08:21:52.066Z,19.4
2018-09-30T08:22:41.299Z,19.4
2018-09-30T08:23:31.638Z,19.4
2018-09-30T08:24:24.096Z,19.3
2018-09-30T08:25:11.821Z,19.4
2018-09-30T08:26:02.062Z,19.3
2018-09-30T08:26:51.833Z,19.4
2018-09-30T08:27:41.645Z,19.3
2018-09-30T08:28:32.018Z,19.3
2018-09-30T08:29:22.016Z,19.4
2018-09-30T08:30:12.371Z,19.4
2018-09-30T08:31:02.151Z,19.4
2018-09-30T08:31:53.067Z,19.3
2018-09-30T08:32:42.301Z,19.3
2018-09-30T08:33:31.548Z,19.4
2018-09-30T08:34:22.958Z,19.3
2018-09-30T08:35:12.540Z,19.3
2018-09-30T08:36:02.323Z,19.3
2018-09-30T08:36:52.905Z,19.3
2018-09-30T08:37:42.159Z,19.3
2018-09-30T08:38:32.760Z,19.3
2018-09-30T08:39:23.097Z,19.3
2018-09-30T08:40:13.588Z,19.3
2018-09-30T08:41:03.236Z,19.3
2018-09-30T08:41:52.480Z,19.3
2018-09-30T08:42:42.525Z,19.3
2018-09-30T08:43:32.297Z,19.3
2018-09-30T08:44:24.961Z,19.3
2018-09-30T08:45:12.718Z,19.3
2018-09-30T08:46:02.886Z,19.3
2018-09-30T08:46:53.844Z,19.3
2018-09-30T08:47:43.160Z,19.3
2018-09-30T08:48:33.270Z,19.3
2018-09-30T08:49:25.678Z,19.3
2018-09-30T08:50:13.845Z,19.3
2018-09-30T08:51:03.717Z,19.3
2018-09-30T08:51:54.283Z,19.3
2018-09-30T08:52:43.235Z,19.3
2018-09-30T08:53:34.135Z,19.3
2018-09-30T08:54:24.221Z,19.3
2018-09-30T08:55:13.652Z,19.3
2018-09-30T08:56:05.061Z,19.3
2018-09-30T08:56:54.055Z,19.3
2018-09-30T08:57:44.101Z,19.3
2018-09-30T08:58:34.182Z,19.3
2018-09-30T08:59:24.455Z,19.3
2018-09-30T09:00:14.624Z,19.3
2018-09-30T09:01:03.850Z,19.3
2018-09-30T09:01:55.243Z,19.3
2018-09-30T09:02:44.505Z,19.3
2018-09-30T09:03:35.102Z,19.3
2018-09-30T09:04:24.621Z,19.3
2018-09-30T09:05:15.225Z,19.3
2018-09-30T09:06:05.013Z,19.3
2018-09-30T09:06:54.872Z,19.3
2018-09-30T09:07:44.296Z,19.3
2018-09-30T09:08:35.219Z,19.3
2018-09-30T09:09:25.588Z,19.1
2018-09-30T09:10:15.290Z,19.1
2018-09-30T09:11:05.049Z,19.1
2018-09-30T09:11:55.154Z,19
2018-09-30T09:12:45.503Z,19
2018-09-30T09:13:35.864Z,19.1
2018-09-30T09:14:24.523Z,19.1
2018-09-30T09:15:14.840Z,19.1
2018-09-30T09:16:05.156Z,19.1
2018-09-30T09:16:55.515Z,19.1
2018-09-30T09:17:45.829Z,19.1
2018-09-30T09:18:34.788Z,19.1
2018-09-30T09:19:25.675Z,19.1
2018-09-30T09:20:15.735Z,19.1
2018-09-30T09:21:05.806Z,19.1
2018-09-30T09:21:56.166Z,19.1
2018-09-30T09:22:46.470Z,19.1
2018-09-30T09:39:26.617Z,19.2
2018-09-30T09:40:15.900Z,19.1
2018-09-30T09:41:05.000Z,19.1
2018-09-30T09:41:55.360Z,19.1
2018-09-30T09:42:45.494Z,19.1
2018-09-30T09:43:36.082Z,19.1
2018-09-30T09:44:27.286Z,19.1
2018-09-30T09:45:15.612Z,19.1
2018-09-30T09:46:05.710Z,19.1
2018-09-30T09:46:56.295Z,19.1
2018-09-30T09:47:46.348Z,19.1
2018-09-30T09:48:35.865Z,19.1
2018-09-30T09:49:27.262Z,19.1
2018-09-30T09:50:15.940Z,19.1
2018-09-30T09:51:06.622Z,19.1
2018-09-30T09:51:56.666Z,19.1
2018-09-30T09:52:47.739Z,19.1
2018-09-30T09:53:36.544Z,19.1
2018-09-30T09:54:26.879Z,19.1
2018-09-30T09:55:16.609Z,19.1
2018-09-30T09:56:06.891Z,19.1
2018-09-30T09:56:56.754Z,19.1
2018-09-30T09:57:46.483Z,19.1
2018-09-30T09:58:36.531Z,19.1
2018-09-30T09:59:28.762Z,19.1
2018-09-30T10:00:16.946Z,19.1
2018-09-30T10:01:06.994Z,19.1
2018-09-30T10:01:57.373Z,19.1
2018-09-30T10:02:46.853Z,19.1
2018-09-30T10:03:37.235Z,19.1
2018-09-30T10:04:27.023Z,19.1
2018-09-30T10:05:19.502Z,19.1
2018-09-30T10:06:07.970Z,19.1
2018-09-30T10:06:57.747Z,19.1
2018-09-30T10:07:47.270Z,19
2018-09-30T10:08:37.003Z,19
2018-09-30T10:09:27.595Z,19
2018-09-30T10:10:18.005Z,19
2018-09-30T10:11:08.110Z,18.9
2018-09-30T10:11:57.888Z,18.9
2018-09-30T10:12:48.148Z,18.9
2018-09-30T10:13:37.655Z,18.9
2018-09-30T10:14:27.990Z,18.9
2018-09-30T10:15:18.663Z,18.9
2018-09-30T10:16:08.966Z,18.9
2018-09-30T10:16:57.598Z,18.9
2018-09-30T10:17:47.445Z,18.9
2018-09-30T10:18:38.277Z,18.9
2018-09-30T10:19:29.067Z,18.8
2018-09-30T10:20:18.770Z,18.8
2018-09-30T10:21:08.740Z,18.8
2018-09-30T10:21:58.330Z,18.8
2018-09-30T10:22:48.204Z,18.9
2018-09-30T10:23:37.880Z,18.9
2018-09-30T10:24:27.949Z,18.9
2018-09-30T10:25:19.419Z,18.9
2018-09-30T10:26:08.875Z,18.9
2018-09-30T10:26:58.397Z,18.9
2018-09-30T10:27:48.179Z,18.9
2018-09-30T10:28:38.225Z,18.9
2018-09-30T10:29:28.044Z,18.9
2018-09-30T10:30:18.134Z,18.9
2018-09-30T10:31:09.258Z,18.9
2018-09-30T10:31:59.044Z,18.9
2018-09-30T10:32:48.819Z,18.9
2018-09-30T10:33:39.129Z,18.9
2018-09-30T10:34:29.266Z,18.9
2018-09-30T10:35:19.341Z,18.9
2018-09-30T10:36:08.789Z,18.9
2018-09-30T10:36:59.366Z,18.9
2018-09-30T10:37:48.921Z,18.9
2018-09-30T10:38:42.152Z,18.9
2018-09-30T10:39:30.432Z,18.9
2018-09-30T10:40:19.756Z,18.9
2018-09-30T10:41:09.725Z,18.9
2018-09-30T10:41:59.830Z,18.9
2018-09-30T10:42:49.591Z,18.9
2018-09-30T10:43:39.875Z,18.9
2018-09-30T10:44:29.968Z,18.9
2018-09-30T10:45:19.981Z,18.9
2018-09-30T10:46:09.543Z,18.9
2018-09-30T10:46:59.568Z,18.9
2018-09-30T10:47:49.906Z,18.9
2018-09-30T10:48:40.208Z,18.9
2018-09-30T10:49:29.493Z,18.9
2018-09-30T10:50:20.425Z,18.9
2018-09-30T10:51:09.870Z,18.9
2018-09-30T10:51:59.163Z,18.9
2018-09-30T10:52:50.265Z,18.9
2018-09-30T10:53:40.041Z,18.9
2018-09-30T10:54:30.455Z,18.9
2018-09-30T10:55:21.578Z,18.9
2018-09-30T10:56:10.546Z,18.9
2018-09-30T10:57:02.098Z,18.9
2018-09-30T10:57:50.672Z,18.9
2018-09-30T10:58:40.703Z,18.9
2018-09-30T10:59:31.078Z,18.9
2018-09-30T11:00:20.297Z,18.9
2018-09-30T11:01:11.175Z,18.9
2018-09-30T11:02:01.549Z,18.9
2018-09-30T11:02:50.905Z,18.9
2018-09-30T11:03:42.673Z,18.9
2018-09-30T11:04:31.135Z,18.9
2018-09-30T11:05:21.505Z,18.9
2018-09-30T11:06:10.685Z,18.9
2018-09-30T11:07:01.571Z,18.9
2018-09-30T11:07:52.131Z,18.9
2018-09-30T11:08:41.431Z,18.9
2018-09-30T11:09:31.806Z,18.9
2018-09-30T11:10:21.686Z,18.9
2018-09-30T11:11:11.104Z,18.9
2018-09-30T11:12:02.221Z,18.9
2018-09-30T11:12:51.772Z,18.9
2018-09-30T11:13:41.779Z,18.9
2018-09-30T11:14:32.151Z,18.9
2018-09-30T11:15:21.909Z,18.9
2018-09-30T11:16:14.191Z,18.9
2018-09-30T11:17:02.397Z,18.9
2018-09-30T11:17:52.103Z,18.9
2018-09-30T11:18:42.168Z,18.9
2018-09-30T11:19:31.939Z,18.9
2018-09-30T11:20:22.323Z,18.9
2018-09-30T11:21:12.663Z,18.9
2018-09-30T11:22:02.162Z,18.9
2018-09-30T11:22:51.948Z,18.9
2018-09-30T11:23:42.810Z,18.9
2018-09-30T11:24:32.608Z,18.9
2018-09-30T11:25:22.953Z,18.9
2018-09-30T11:26:12.942Z,18.9
2018-09-30T11:27:03.109Z,18.9
2018-09-30T11:27:52.785Z,18.9
2018-09-30T11:28:42.926Z,18.9
2018-09-30T11:29:32.233Z,18.9
2018-09-30T11:30:23.300Z,18.9
2018-09-30T11:31:13.388Z,18.9
2018-09-30T11:32:04.453Z,18.9
2018-09-30T11:32:53.230Z,18.9
2018-09-30T11:33:43.540Z,18.9
2018-09-30T11:34:33.585Z,18.9
2018-09-30T11:35:23.360Z,18.9
2018-09-30T11:36:13.160Z,18.9
2018-09-30T11:37:03.555Z,18.9
2018-09-30T11:37:53.539Z,18.9
2018-09-30T11:38:43.909Z,18.9
2018-09-30T11:39:33.862Z,18.9
2018-09-30T11:40:23.685Z,18.9
2018-09-30T11:41:13.805Z,18.9
2018-09-30T11:42:04.137Z,18.9
2018-09-30T11:42:55.100Z,18.9
2018-09-30T11:43:43.728Z,18.9
2018-09-30T11:44:33.775Z,18.9
2018-09-30T11:45:24.575Z,18.9
2018-09-30T11:46:14.010Z,18.9
2018-09-30T11:47:04.257Z,18.9
2018-09-30T11:47:54.855Z,18.9
2018-09-30T11:48:44.779Z,18.9
2018-09-30T11:49:34.480Z,18.9
2018-09-30T11:50:24.466Z,18.9
2018-09-30T11:51:14.332Z,18.9
2018-09-30T11:52:04.304Z,18.9
2018-09-30T11:52:55.432Z,18.9
2018-09-30T11:53:44.716Z,18.9
2018-09-30T11:54:34.189Z,18.9
2018-09-30T11:55:23.974Z,18.9
2018-09-30T11:56:14.116Z,18.9
2018-09-30T11:57:05.241Z,18.9
2018-09-30T11:57:56.104Z,18.9
2018-09-30T11:58:45.386Z,18.9
2018-09-30T11:59:35.436Z,18.9
2018-09-30T12:00:25.482Z,18.9
2018-09-30T12:01:15.837Z,18.9
2018-09-30T12:02:05.039Z,18.9
2018-09-30T12:02:55.363Z,18.9
2018-09-30T12:03:45.299Z,18.9
2018-09-30T12:04:35.826Z,18.9
2018-09-30T12:05:25.876Z,18.9
2018-09-30T12:06:15.604Z,18.9
2018-09-30T12:07:05.146Z,18.9
2018-09-30T12:07:56.303Z,18.9
2018-09-30T12:08:45.468Z,18.9
2018-09-30T12:09:36.121Z,18.9
2018-09-30T12:10:25.931Z,18.9
2018-09-30T12:11:15.685Z,18.9
2018-09-30T12:12:05.468Z,18.9
2018-09-30T12:12:56.591Z,18.9